Merced, CA (95341)

11:02 PM PST on January 27, 2015 (GMT -0800)
North Merced | Change Station
CLOSE
Current Station
Personal Weather Station
Location: Merced, CA
Elevation: 184 ft
Nearby Weather Stations

Elev 184 ft 37.34 °N, 120.46 °W | Updated 2 seconds ago

Partly Cloudy
Partly Cloudy
49.0 °F
Feels Like 49 °F
N
0.0
Wind Variable Wind from WSW
Gusts 0.0 mph

Today
High -- | Low -- °F
--% Chance of Precip.
Yesterday
High -- | Low -- °F
Precip. -- in
7:09 AM 5:20 PM
First Quarter, 62% visible
Pressure 30.25 in
Visibility 0.5 miles
Clouds
Windchill 49 °F
Dew Point 47 °F
Humidity 92%
Rainfall 0.00 in
Snow Depth Not available.
UV Not available.
Pollen 1.80 out of 12
Air Quality Not available.
Flu Activity Not available.
METAR KMCE 280653Z AUTO 00000KT 1/2SM FG VV003 09/07 A3025 RMK AO2 SLP244 T00890072

More Conditions Fewer Conditions

Pressure 30.25 in
Visibility 0.5 miles
Clouds
Windchill 49 °F
Dew Point 47 °F
Humidity 92%
Rainfall 0.00 in
Snow Depth Not available.
UV Not available.
Pollen 1.80 out of 12
Air Quality Not available.
Flu Activity Not available.
METAR KMCE 280653Z AUTO 00000KT 1/2SM FG VV003 09/07 A3025 RMK AO2 SLP244 T00890072

More Conditions Fewer Conditions

10-Day Weather Forecast

Almanac

Astronomy

Jan. 27, 2015 Rise Set
Actual Time
Civil Twilight
Nautical Twilight
Astronomical Twilight
Moon
Length of Visible Light
Length of Day
Tomorrow will be .
, % of the Moon is Illuminated

Today's Extremes

State Highs State Lows

Community

WunderPhotos

Upload Photos

1,791,118 photos uploaded!

WunderBlogs® & News

Nearby

Air Quality

  Air Quality AQ Index Pollutant
Not available.

Snow Depth

Station Depth Elevation

Earthquake Activity

City Distance Mag. Time & Date
Minimum magnitude displayed is 2.5.

Coastal Water Temperatures

Place Temperature

Nearby Weather Stations